PST: 17:04 MST: 18:04 CST: 19:04 EST: 20:04 LDN: 01:04 UTC: 00:04
User Agent: CCBot/2.0 (https://commoncrawl.org/faq/)
IP Address: 3.231.25.104
Hostname: ec2-3-231-25-104.compute-1.amazonaws.com

METAR:
KBFI 072353Z VRB03KT 10SM FEW042 BKN250 24/09 A3013 RMK AO2 SLP202 T02390089 10239 20189 58014
KBFI 072253Z COR 00000KT 10SM SCT042 BKN250 23/08 A3014 RMK AO2 SLP207 T02330083
KBFI 072153Z 19005KT 10SM SCT040 BKN200 23/09 A3016 RMK AO2 SLP213 T02280089
KBFI 072053Z 23005KT 10SM FEW041 22/09 A3017 RMK AO2 SLP216 T02220094 58005

TAF:
KBFI 072339Z 0800/0824 25005KT P6SM SCT040 BKN150
FM 080100 35004KT P6SM SCT050 OVC100
FM 080600 VRB03KT P6SM OVC035
FM 081300 18003KT P6SM OVC025

KBFI 071737Z 0718/0818 17005KT P6SM OVC025
FM 071900 22007KT P6SM BKN050
FM 072100 25007KT P6SM SCT050 OVC100
FM 080100 35004KT P6SM SCT050 OVC100
FM 080600 VRB03KT P6SM OVC035
FM 081500 18003KT P6SM OVC025

KBFI 071121Z 0712/0812 17005KT P6SM OVC024
FM 071900 22007KT P6SM BKN050
FM 072100 25007KT P6SM SCT050 OVC100
FM 080100 35004KT P6SM SCT050 OVC100
FM 080600 02004KT P6SM OVC025

KBFI 070520Z 0706/0806 13006KT P6SM SCT070
FM 070900 18005KT P6SM OVC035
FM 071200 19005KT P6SM OVC020
FM 071800 22007KT P6SM BKN050
FM 080000 35004KT P6SM SCT050 OVC100

KBFI 062336Z 0700/0724 32009KT P6SM VCSH BKN040 OVC050
FM 070400 VRB05KT P6SM BKN050
FM 071200 17005KT P6SM OVC030
FM 071800 21005KT P6SM BKN050